x

West Tampa - 112 Nm Wnw Of Tampa, Fl (42036) Wave Buoy

5:50pm - Mon 28th Jul 2014 All times are EDT. -4 hours from GMT.

  • Sig Wave height 4.3ft
  • Swell Direction
  • Peak Period 6s
  • Average Period 5s
  • Wind
    18mph, 22mph gusts
  • Sea Temp 86°f
  • Air Temp 84°f
  • Sea Pressure 1015.1mb
  • West Tampa  - 112 Nm Wnw Of Tampa, Fl
  • West Tampa  - 112 Nm Wnw Of Tampa, Fl

More Historic Weather Station data

Upgrade to MSW Pro to gain access to the past 30 days of data for over 8000 Wavebouys and Weather Stations around the globe.

Join Pro

Comparision Forecast

View Surf forecast
   
Mon 07/28 5:50pm 4.5ft 6s 5s 18 22 mph 1015.1mb 86f 84f
4:50pm 4ft 6s 4s 18 20 mph 1015.9mb 86f 85f
3:50pm 3.5ft 6s 4s 20 22 mph 1016.3mb 86f 84f
2:50pm 4ft 6s 4s 18 22 mph 1017.1mb 86f 84f
1:50pm 4ft 5s 4s 16 20 mph 1017.6mb 86f 83f
12:50pm 3.5ft 5s 4s 13 18 mph 1018.1mb 86f 84f
11:50am 3ft 5s 4s 13 16 mph 1018.1mb 85f 84f
10:50am 3.5ft 5s 4s 18 20 mph 1017.9mb 85f 85f
9:50am 3.5ft 4s 4s 16 18 mph 1017.9mb 85f 85f
8:50am 3ft 5s 4s 16 20 mph 1017.8mb 85f 84f
7:50am 3ft 5s 4s 13 18 mph 1017.9mb 85f 84f
6:50am 2.5ft 4s 4s 18 20 mph 1017.7mb 85f 83f
5:50am  -   -   -  16 18 mph 1017.1mb 85f 84f
4:50am 2.5ft 4s 4s 16 20 mph 1016.6mb 86f 84f
3:50am 2.5ft 4s 4s 16 20 mph 1016.5mb 86f 84f
2:50am 2ft 4s 4s 13 16 mph 1016.7mb 86f 84f
1:50am 2ft 4s 4s 13 16 mph 1017.5mb 86f 84f
12:50am 2ft 4s 4s 13 16 mph 1018mb 87f 85f
Sun 07/27 11:50pm 2ft 4s 4s 13 18 mph 1018.2mb 87f 85f
10:50pm 1.6ft 4s 4s 13 16 mph 1018.1mb 87f 85f
9:50pm 2ft 4s 4s 11 13 mph 1017.8mb 87f 85f
8:50pm 2ft 4s 4s 11 13 mph 1017.8mb 87f 85f
7:50pm 2ft 5s 4s 11 13 mph 1017.7mb 87f 85f
6:50pm 1.6ft 5s 4s 11 13 mph 1017.7mb 86f 85f
5:50pm 2ft 3s 4s 11
mph
1017.7mb 86f 85f
4:50pm 1.6ft 4s 4s 11 13 mph 1017.9mb 86f 85f
3:50pm 2ft 3s 4s 11 13 mph 1018.2mb 86f 85f
2:50pm 2ft 4s 4s 11 13 mph 1018.8mb 86f 85f
1:50pm 1.6ft 3s 4s 11 13 mph 1019.4mb 86f 85f
12:50pm 1.6ft 4s 4s 11 16 mph 1019.7mb 85f 84f
11:50am 1.6ft 4s 4s 11 13 mph 1019.9mb 85f 84f
10:50am 1.6ft 4s 4s 11 13 mph 1019.5mb 85f 84f
9:50am 1.6ft 4s 4s 11 13 mph 1018.9mb 85f 84f
8:50am 1.6ft 4s 4s 11 13 mph 1018.8mb 85f 84f
7:50am 1.6ft 4s 4s 11
mph
1018.6mb 85f 84f
6:50am 1.6ft 4s 4s 11
mph
1018mb 85f 84f
5:50am 1.6ft 4s 4s 11 13 mph 1017.7mb 85f 84f
4:50am 1.6ft 5s 4s 11 13 mph 1017.7mb 85f 84f
3:50am 1.6ft 5s 4s 11 13 mph 1017.6mb 85f 84f
2:50am  -   -   -  11 13 mph 1017.9mb 85f 84f
1:50am 1.6ft 5s 4s 9 11 mph 1018.5mb 85f 84f
12:50am 1.6ft 4s 4s 9 13 mph 1018.5mb 85f 84f
Sat 07/26 11:50pm 1.6ft 4s 4s 9 11 mph 1018.4mb 85f 84f
10:50pm 1.6ft 4s 4s 7 9 mph 1018.1mb 85f 84f
9:50pm 1.6ft 4s 4s 7 9 mph 1018.3mb 86f 84f
8:50pm 1.6ft 5s 4s 9 11 mph 1017.7mb 86f 84f
7:50pm 1.6ft 5s 4s 11
mph
1017.3mb 86f 84f
6:50pm  -   -   -  11 13 mph 1017.4mb 86f 85f
5:50pm 1.6ft 5s 4s 11
mph
1017.9mb 86f 85f
4:50pm 1.6ft 4s 4s 11 13 mph 1018.1mb 86f 85f
3:50pm 1.6ft 5s 4s 9 13 mph 1018.5mb 86f 85f
2:50pm 1.6ft 5s 4s 9 11 mph 1019mb 86f 85f
1:50pm 1.6ft 4s 4s 9 11 mph 1019.1mb 86f 84f
12:50pm 1.6ft 5s 4s 9 11 mph 1019.2mb 85f 84f
11:50am 2ft 5s 4s 11 13 mph 1019.3mb 85f 84f
10:50am 1.6ft 4s 4s 9 11 mph 1019.5mb 85f 84f
9:50am 1.6ft 5s 4s 9 11 mph 1019.3mb 85f 84f
8:50am 2ft 5s 4s 9
mph
1018.9mb 85f 84f
7:50am 2ft 5s 4s 11 13 mph 1018.2mb 85f 84f
6:50am 2ft 5s 4s 11 13 mph 1017.6mb 85f 84f
5:50am 2ft 5s 4s 11 13 mph 1017.1mb 85f 84f
4:50am 1.6ft 4s 4s 11 13 mph 1016.8mb 85f 84f
3:50am 1.6ft 5s 4s 11 13 mph 1016.8mb 85f 84f
2:50am 1.6ft 4s 4s 11 13 mph 1017.2mb 85f 84f
1:50am 1.6ft 5s 4s 9 11 mph 1017.9mb 85f 84f
12:50am 1.6ft 4s 4s 9 16 mph 1018.2mb 85f 84f
Fri 07/25 11:50pm 1.6ft 7s 4s 9 11 mph 1018.2mb 86f 83f
10:50pm 1.6ft 5s 4s 9 11 mph 1018.2mb 86f 85f
9:50pm 1.6ft 4s 4s 9
mph
1017.7mb 86f 85f
8:50pm 1.3ft 7s 4s 4 9 mph 1017.7mb 85f 84f
7:50pm 1.3ft 8s 4s 7 11 mph 1016.8mb 86f 85f
6:50pm 1.3ft 8s 4s 11 13 mph 1016.3mb 86f 85f
5:50pm 1.3ft 7s 4s 9 11 mph 1016.5mb 86f 85f
4:50pm 1ft 7s 3s 11
mph
1016.9mb 86f 85f
3:50pm 1ft 8s 4s 9 13 mph 1017.2mb 86f 85f
2:50pm 1ft 10s 4s 9 11 mph 1017.9mb 86f 85f
1:50pm 1ft 8s 4s 7 9 mph 1018.2mb 86f 84f
12:50pm 1ft 8s 4s 7
mph
1018.5mb 85f 84f
11:50am 1ft 4s 4s 7
mph
1018.6mb 85f 84f
10:50am 1ft 8s 4s 4 7 mph 1018.6mb 85f 84f
9:50am 1.3ft 8s 4s 7 9 mph 1018.5mb 84f 84f
8:50am 1.3ft 11s 4s 7 9 mph 1018.2mb 84f 84f
7:50am 1.3ft 10s 4s 7 9 mph 1017.9mb 84f 84f
6:50am 1.3ft 10s 4s 7 9 mph 1017.2mb 84f 84f
5:50am 1.3ft 10s 4s 9 11 mph 1016.9mb 85f 84f
4:50am 1ft 10s 4s 11
mph
1016.3mb 85f 84f
3:50am 1ft 10s 4s 9
mph
1016.2mb 85f 84f
2:50am 1ft 3s 3s 9 11 mph 1016.2mb 85f 84f
1:50am 1ft 11s 3s 11 13 mph 1016.5mb 85f 84f
12:50am 0.7ft  -  3s 11
mph
1016.9mb 85f 84f
Thu 07/24 11:50pm 1ft 7s 3s 9 11 mph 1017.1mb 85f 84f